createdAt,value
2023-02-11T00:00:12.058Z,103279.19
2023-02-11T00:02:47.458Z,103267.41
2023-02-11T00:05:20.047Z,103269.09
2023-02-11T00:07:52.023Z,103263.34
2023-02-11T00:10:24.006Z,103256.25
2023-02-11T00:12:56.469Z,103258.09
2023-02-11T00:15:28.390Z,103262.56
2023-02-11T00:18:00.272Z,103258.75
2023-02-11T00:20:32.207Z,103253.53
2023-02-11T00:23:04.126Z,103245.53
2023-02-11T00:25:44.812Z,103245.03
2023-02-11T00:28:16.760Z,103242.56
2023-02-11T00:30:56.097Z,103246.72
2023-02-11T00:33:28.168Z,103251.03
2023-02-11T00:36:09.142Z,103252.88
2023-02-11T00:38:44.534Z,103249.22
2023-02-11T00:41:17.936Z,103243.31
2023-02-11T00:43:50.465Z,103239.28
2023-02-11T00:46:23.102Z,103231.00
2023-02-11T00:48:57.741Z,103240.06
2023-02-11T00:51:30.001Z,103231.28
2023-02-11T00:54:02.008Z,103226.97
2023-02-11T00:56:34.198Z,103239.94
2023-02-11T00:59:06.398Z,103217.94
2023-02-11T01:01:38.406Z,103249.75
2023-02-11T01:04:10.418Z,103239.94
2023-02-11T01:06:42.443Z,103247.63
2023-02-11T01:09:14.492Z,103251.28
2023-02-11T01:11:47.154Z,103240.56
2023-02-11T01:14:19.116Z,103251.94
2023-02-11T01:16:51.107Z,103256.53
2023-02-11T01:19:23.075Z,103259.13
2023-02-11T01:21:54.943Z,103261.75
2023-02-11T01:24:27.040Z,103258.09
2023-02-11T01:26:59.243Z,103257.44
2023-02-11T01:29:31.270Z,103247.63
2023-02-11T01:32:03.374Z,103250.00
2023-02-11T01:34:35.424Z,103257.34
2023-02-11T01:37:07.433Z,103256.41
2023-02-11T01:39:39.568Z,103255.50
2023-02-11T01:42:21.834Z,103250.00
2023-02-11T01:44:55.263Z,103246.59
2023-02-11T01:47:27.258Z,103237.44
2023-02-11T01:50:02.343Z,103227.38
2023-02-11T01:52:41.008Z,103241.47
2023-02-11T01:55:32.568Z,103242.16
2023-02-11T01:58:06.341Z,103245.03
2023-02-11T02:00:41.649Z,103213.63
2023-02-11T02:03:22.645Z,103209.31
2023-02-11T02:06:10.959Z,103219.25
2023-02-11T02:09:02.056Z,103222.75
2023-02-11T02:11:34.049Z,103236.13
2023-02-11T02:14:06.293Z,103220.13
2023-02-11T02:16:38.412Z,103220.13
2023-02-11T02:19:40.734Z,103220.53
2023-02-11T02:22:24.165Z,103228.53
2023-02-11T02:24:56.798Z,103219.25
2023-02-11T02:28:16.415Z,103223.28
2023-02-11T02:31:06.715Z,103222.13
2023-02-11T02:33:55.900Z,103223.03
2023-02-11T02:36:46.493Z,103206.25
2023-02-11T02:39:29.432Z,103223.03
2023-02-11T02:42:02.597Z,103217.50
2023-02-11T02:44:34.735Z,103221.44
2023-02-11T02:47:06.622Z,103220.41
2023-02-11T02:49:38.566Z,103216.63
2023-02-11T02:52:47.563Z,103208.63
2023-02-11T02:55:45.652Z,103192.16
2023-02-11T02:59:09.867Z,103202.59
2023-02-11T03:01:59.678Z,103208.38
2023-02-11T03:04:36.325Z,103224.47
2023-02-11T03:07:41.874Z,103217.13
2023-02-11T03:10:41.695Z,103224.56
2023-02-11T03:13:18.064Z,103209.94
2023-02-11T03:15:57.012Z,103210.06
2023-02-11T03:18:33.598Z,103195.53
2023-02-11T03:21:09.814Z,103203.78
2023-02-11T03:23:52.795Z,103202.88
2023-02-11T03:26:51.482Z,103204.97
2023-02-11T03:29:57.449Z,103187.53
2023-02-11T03:32:41.407Z,103189.78
2023-02-11T03:35:29.418Z,103179.94
2023-02-11T03:38:07.554Z,103201.03
2023-02-11T03:40:42.777Z,103205.50
2023-02-11T03:43:42.223Z,103212.16
2023-02-11T03:46:19.729Z,103182.44
2023-02-11T03:48:58.970Z,103221.28
2023-02-11T03:51:33.559Z,103215.19
2023-02-11T03:54:13.648Z,103221.28
2023-02-11T03:56:56.565Z,103205.50
2023-02-11T03:59:29.345Z,103186.91
2023-02-11T04:02:01.348Z,103204.81
2023-02-11T04:04:33.281Z,103214.50
2023-02-11T04:07:05.283Z,103217.25
2023-02-11T04:09:37.521Z,103198.81
2023-02-11T04:12:09.484Z,103200.00
2023-02-11T04:14:41.504Z,103188.88
2023-02-11T04:17:14.104Z,103181.72
2023-02-11T04:19:45.998Z,103176.47
2023-02-11T04:22:17.968Z,103173.97
2023-02-11T04:24:49.993Z,103171.09
2023-02-11T04:27:22.498Z,103171.25
2023-02-11T04:29:54.422Z,103153.31
2023-02-11T04:32:26.404Z,103168.75
2023-02-11T04:34:58.387Z,103180.28
2023-02-11T04:37:30.520Z,103169.41
2023-02-11T04:40:02.797Z,103179.09
2023-02-11T04:42:34.768Z,103174.63
2023-02-11T04:45:07.907Z,103180.63
2023-02-11T04:47:39.834Z,103178.56
2023-02-11T04:50:11.937Z,103180.63
2023-02-11T04:52:43.848Z,103187.72
2023-02-11T04:55:15.946Z,103197.25
2023-02-11T04:57:47.946Z,103193.59
2023-02-11T05:00:19.954Z,103193.72
2023-02-11T05:02:51.925Z,103184.59
2023-02-11T05:05:23.891Z,103190.06
2023-02-11T05:07:55.881Z,103191.91
2023-02-11T05:10:28.690Z,103193.88
2023-02-11T05:13:00.851Z,103206.03
2023-02-11T05:15:32.908Z,103197.16
2023-02-11T05:18:05.074Z,103190.34
2023-02-11T05:20:40.399Z,103187.47
2023-02-11T05:23:12.534Z,103190.34
2023-02-11T05:25:44.483Z,103179.88
2023-02-11T05:28:16.551Z,103187.88
2023-02-11T05:30:48.629Z,103187.06
2023-02-11T05:33:20.697Z,103188.13
2023-02-11T05:35:52.899Z,103179.34
2023-02-11T05:38:24.894Z,103170.34
2023-02-11T05:40:57.400Z,103175.56
2023-02-11T05:43:29.380Z,103165.78
2023-02-11T05:46:01.706Z,103179.09
2023-02-11T05:48:34.039Z,103176.34
2023-02-11T05:51:06.116Z,103179.63
2023-02-11T05:53:38.049Z,103173.97
2023-02-11T05:56:10.548Z,103155.91
2023-02-11T05:58:42.590Z,103184.84
2023-02-11T06:01:14.540Z,103186.78
2023-02-11T06:03:50.142Z,103182.91
2023-02-11T06:06:22.259Z,103134.63
2023-02-11T06:08:54.185Z,103184.69
2023-02-11T06:11:26.182Z,103186.28
2023-02-11T06:13:58.238Z,103180.03
2023-02-11T06:16:30.294Z,103183.66
2023-02-11T06:19:02.303Z,103188.75
2023-02-11T06:21:43.244Z,103187.88
2023-02-11T06:24:17.515Z,103187.97
2023-02-11T06:26:56.564Z,103187.22
2023-02-11T06:29:28.465Z,103189.94
2023-02-11T06:32:00.728Z,103184.44
2023-02-11T06:34:32.786Z,103187.06
2023-02-11T06:37:05.455Z,103193.97
2023-02-11T06:39:37.757Z,103186.03
2023-02-11T06:42:10.354Z,103187.97
2023-02-11T06:44:42.313Z,103186.13
2023-02-11T06:47:14.256Z,103191.78
2023-02-11T06:49:46.601Z,103192.69
2023-02-11T06:52:18.606Z,103196.75
2023-02-11T06:54:50.522Z,103205.50
2023-02-11T06:57:22.534Z,103205.50
2023-02-11T06:59:55.652Z,103206.69
2023-02-11T07:02:27.653Z,103215.47
2023-02-11T07:04:59.597Z,103214.13
2023-02-11T07:07:34.104Z,103215.22
2023-02-11T07:10:06.957Z,103212.59
2023-02-11T07:12:39.199Z,103223.16
2023-02-11T07:15:11.128Z,103210.34
2023-02-11T07:17:43.433Z,103224.75
2023-02-11T07:20:16.776Z,103221.22
2023-02-11T07:22:48.864Z,103219.38
2023-02-11T07:25:20.812Z,103227.38
2023-02-11T07:27:52.784Z,103229.47
2023-02-11T07:30:24.717Z,103229.84
2023-02-11T07:32:57.335Z,103219.91
2023-02-11T07:35:29.243Z,103219.91
2023-02-11T07:38:01.166Z,103236.16
2023-02-11T07:40:33.165Z,103236.91
2023-02-11T07:43:05.108Z,103242.41
2023-02-11T07:45:39.633Z,103239.69
2023-02-11T07:48:11.574Z,103238.75
2023-02-11T07:50:43.529Z,103244.91
2023-02-11T07:53:15.649Z,103247.38
2023-02-11T07:55:47.579Z,103247.53
2023-02-11T07:58:19.577Z,103253.13
2023-02-11T08:00:51.523Z,103242.00
2023-02-11T08:03:23.457Z,103251.03
2023-02-11T08:05:55.698Z,103254.22
2023-02-11T08:08:27.945Z,103258.78
2023-02-11T08:11:13.255Z,103259.81
2023-02-11T08:13:46.142Z,103253.66
2023-02-11T08:16:31.229Z,103256.00
2023-02-11T08:19:11.706Z,103219.53
2023-02-11T08:21:44.426Z,103269.66
2023-02-11T08:24:17.199Z,103267.03
2023-02-11T08:26:49.343Z,103267.03
2023-02-11T08:29:21.358Z,103270.44
2023-02-11T08:31:53.302Z,103272.28
2023-02-11T08:34:25.338Z,103274.06
2023-02-11T08:36:57.279Z,103270.69
2023-02-11T08:39:29.174Z,103276.44
2023-02-11T08:42:01.169Z,103287.84
2023-02-11T08:44:33.103Z,103286.91
2023-02-11T08:47:05.425Z,103248.72
2023-02-11T08:49:37.552Z,103279.47
2023-02-11T08:52:09.615Z,103285.38
2023-02-11T08:54:41.563Z,103273.81
2023-02-11T08:57:13.874Z,103281.94
2023-02-11T08:59:45.808Z,103283.13
2023-02-11T09:02:17.810Z,103278.03
2023-02-11T09:04:49.717Z,103287.97
2023-02-11T09:07:21.782Z,103288.25
2023-02-11T09:09:53.791Z,103293.59
2023-02-11T09:12:25.746Z,103288.25
2023-02-11T09:14:57.833Z,103289.00
2023-02-11T09:17:29.820Z,103286.66
2023-02-11T09:20:01.836Z,103298.97
2023-02-11T09:22:33.826Z,103291.13
2023-02-11T09:25:06.371Z,103289.69
2023-02-11T09:27:38.337Z,103294.50
2023-02-11T09:30:11.304Z,103300.56
2023-02-11T09:32:43.356Z,103307.84
2023-02-11T09:35:15.316Z,103300.66
2023-02-11T09:37:47.352Z,103307.59
2023-02-11T09:40:20.142Z,103323.19
2023-02-11T09:43:17.450Z,103322.28
2023-02-11T09:45:50.863Z,103328.81
2023-02-11T09:48:23.946Z,103318.59
2023-02-11T09:51:03.991Z,103334.59
2023-02-11T09:53:42.941Z,103323.81
2023-02-11T09:56:15.921Z,103325.16
2023-02-11T09:58:47.911Z,103325.94
2023-02-11T10:01:49.590Z,103326.75
2023-02-11T10:04:45.523Z,103336.66
2023-02-11T10:07:24.636Z,103337.06
2023-02-11T10:11:01.357Z,103334.03
2023-02-11T10:14:08.182Z,103333.25
2023-02-11T10:17:37.996Z,103343.47
2023-02-11T10:20:46.742Z,103341.38
2023-02-11T10:23:29.402Z,103349.75
2023-02-11T10:26:01.990Z,103356.06
2023-02-11T10:28:36.068Z,103359.84
2023-02-11T10:31:16.243Z,103369.94
2023-02-11T10:34:00.211Z,103364.69
2023-02-11T10:36:37.243Z,103363.16
2023-02-11T10:39:18.174Z,103368.38
2023-02-11T10:41:56.515Z,103367.06
2023-02-11T10:44:30.875Z,103362.06
2023-02-11T10:47:27.210Z,103361.03
2023-02-11T10:50:03.691Z,103370.44
2023-02-11T10:52:35.684Z,103374.25
2023-02-11T10:55:10.755Z,103381.31
2023-02-11T10:57:52.791Z,103378.84
2023-02-11T11:00:38.943Z,103382.53
2023-02-11T11:03:39.102Z,103389.31
2023-02-11T11:06:11.582Z,103382.78
2023-02-11T11:08:50.721Z,103388.28
2023-02-11T11:11:25.572Z,103395.38
2023-02-11T11:14:00.457Z,103391.06
2023-02-11T11:16:35.159Z,103392.22
2023-02-11T11:19:07.052Z,103394.19
2023-02-11T11:21:51.296Z,103377.16
2023-02-11T11:24:38.267Z,103387.50
2023-02-11T11:27:21.137Z,103382.25
2023-02-11T11:29:56.745Z,103381.19
2023-02-11T11:32:33.690Z,103382.75
2023-02-11T11:35:23.360Z,103389.03
2023-02-11T11:38:04.889Z,103388.13
2023-02-11T11:40:37.516Z,103389.28
2023-02-11T11:43:22.639Z,103392.03
2023-02-11T11:46:00.413Z,103394.53
2023-02-11T11:48:39.387Z,103394.28
2023-02-11T11:51:12.730Z,103386.81
2023-02-11T11:53:58.686Z,103392.19
2023-02-11T11:56:36.143Z,103383.13
2023-02-11T11:59:16.584Z,103386.25
2023-02-11T12:02:13.156Z,103386.16
2023-02-11T12:05:13.859Z,103387.44
2023-02-11T12:08:13.035Z,103338.44
2023-02-11T12:11:02.838Z,103385.72
2023-02-11T12:13:53.146Z,103385.63
2023-02-11T12:16:50.575Z,103349.81
2023-02-11T12:19:35.257Z,103376.41
2023-02-11T12:22:38.031Z,103366.16
2023-02-11T12:25:52.647Z,103365.91
2023-02-11T12:28:51.957Z,103355.66
2023-02-11T12:31:51.170Z,103358.69
2023-02-11T12:34:36.072Z,103358.94
2023-02-11T12:37:45.989Z,103359.06
2023-02-11T12:40:38.697Z,103353.78
2023-02-11T12:43:27.661Z,103351.16
2023-02-11T12:46:40.937Z,103360.19
2023-02-11T12:49:24.573Z,103357.56
2023-02-11T12:52:41.111Z,103348.78
2023-02-11T12:55:30.319Z,103357.66
2023-02-11T12:58:02.989Z,103339.19
2023-02-11T13:00:48.400Z,103330.66
2023-02-11T13:03:36.909Z,103345.41
2023-02-11T13:06:16.190Z,103345.78
2023-02-11T13:08:59.646Z,103326.91
2023-02-11T13:11:52.158Z,103337.47
2023-02-11T13:14:37.434Z,103338.88
2023-02-11T13:17:34.143Z,103341.50
2023-02-11T13:20:26.942Z,103338.34
2023-02-11T13:23:23.568Z,103340.97
2023-02-11T13:26:14.474Z,103295.41
2023-02-11T13:29:21.391Z,103334.34
2023-02-11T13:32:11.240Z,103340.75
2023-02-11T13:34:43.104Z,103336.69
2023-02-11T13:37:36.062Z,103339.28
2023-02-11T13:40:39.405Z,103340.75
2023-02-11T13:43:28.428Z,103331.63
2023-02-11T13:46:11.586Z,103328.44
2023-02-11T13:48:53.131Z,103338.75
2023-02-11T13:51:45.606Z,103325.53
2023-02-11T13:54:49.296Z,103334.91
2023-02-11T13:57:35.826Z,103332.88
2023-02-11T14:00:33.712Z,103339.19
2023-02-11T14:03:30.093Z,103340.31
2023-02-11T14:06:34.658Z,103317.81
2023-02-11T14:09:09.398Z,103341.47
2023-02-11T14:11:47.639Z,103325.13
2023-02-11T14:14:34.934Z,103341.59
2023-02-11T14:17:06.987Z,103351.56
2023-02-11T14:19:45.981Z,103348.50
2023-02-11T14:22:31.659Z,103343.25
2023-02-11T14:25:18.369Z,103318.09
2023-02-11T14:28:04.009Z,103342.56
2023-02-11T14:30:46.647Z,103338.69
2023-02-11T14:34:06.085Z,103343.66
2023-02-11T14:37:31.753Z,103343.66
2023-02-11T14:40:17.847Z,103335.66
2023-02-11T14:42:53.103Z,103341.84
2023-02-11T14:45:28.737Z,103350.63
2023-02-11T14:48:16.241Z,103345.94
2023-02-11T14:51:23.421Z,103345.00
2023-02-11T14:54:03.235Z,103353.25
2023-02-11T14:56:36.342Z,103349.63
2023-02-11T14:59:22.032Z,103344.38
2023-02-11T15:01:58.652Z,103349.72
2023-02-11T15:04:36.361Z,103335.19
2023-02-11T15:07:12.165Z,103349.19
2023-02-11T15:09:52.227Z,103347.78
2023-02-11T15:12:27.922Z,103360.63
2023-02-11T15:15:01.107Z,103358.00
2023-02-11T15:17:33.256Z,103360.88
2023-02-11T15:20:06.639Z,103359.94
2023-02-11T15:22:39.388Z,103365.44
2023-02-11T15:25:17.210Z,103368.84
2023-02-11T15:27:57.134Z,103367.72
2023-02-11T15:30:36.183Z,103368.38
2023-02-11T15:33:23.184Z,103366.03
2023-02-11T15:35:55.452Z,103376.16
2023-02-11T15:38:27.748Z,103377.97
2023-02-11T15:41:03.928Z,103378.78
2023-02-11T15:43:48.174Z,103382.94
2023-02-11T15:46:23.605Z,103380.59
2023-02-11T15:48:56.167Z,103376.78
2023-02-11T15:51:34.588Z,103382.03
2023-02-11T15:54:19.260Z,103381.13
2023-02-11T15:56:55.568Z,103368.00
2023-02-11T15:59:35.315Z,103375.19
2023-02-11T16:02:35.142Z,103372.22
2023-02-11T16:05:09.668Z,103374.28
2023-02-11T16:07:45.554Z,103374.28
2023-02-11T16:10:36.188Z,103374.16
2023-02-11T16:13:08.045Z,103383.78
2023-02-11T16:15:50.725Z,103361.25
2023-02-11T16:18:52.076Z,103375.03
2023-02-11T16:21:45.486Z,103377.97
2023-02-11T16:24:28.148Z,103375.19
2023-02-11T16:27:08.081Z,103386.91
2023-02-11T16:29:40.202Z,103377.97
2023-02-11T16:32:25.006Z,103370.63
2023-02-11T16:35:00.824Z,103384.66
2023-02-11T16:37:33.395Z,103384.56
2023-02-11T16:40:06.392Z,103384.56
2023-02-11T16:42:38.400Z,103392.69
2023-02-11T16:45:10.416Z,103389.41
2023-02-11T16:47:43.673Z,103374.47
2023-02-11T16:50:25.521Z,103392.84
2023-02-11T16:52:59.402Z,103391.25
2023-02-11T16:55:32.577Z,103392.94
2023-02-11T16:58:04.810Z,103397.09
2023-02-11T17:00:37.351Z,103397.28
2023-02-11T17:03:17.347Z,103389.81
2023-02-11T17:05:55.611Z,103404.78
2023-02-11T17:08:27.912Z,103410.03
2023-02-11T17:10:59.885Z,103404.66
2023-02-11T17:13:33.166Z,103412.00
2023-02-11T17:16:05.403Z,103412.94
2023-02-11T17:18:37.469Z,103414.75
2023-02-11T17:21:09.516Z,103420.94
2023-02-11T17:23:41.883Z,103418.44
2023-02-11T17:26:13.817Z,103419.75
2023-02-11T17:28:47.629Z,103426.59
2023-02-11T17:31:19.721Z,103421.09
2023-02-11T17:33:51.764Z,103428.16
2023-02-11T17:36:23.685Z,103438.56
2023-02-11T17:38:55.661Z,103431.38
2023-02-11T17:41:28.251Z,103396.28
2023-02-11T17:44:01.570Z,103441.19
2023-02-11T17:46:35.598Z,103449.47
2023-02-11T17:49:07.565Z,103455.75
2023-02-11T17:51:40.401Z,103455.22
2023-02-11T17:54:18.715Z,103467.44
2023-02-11T17:56:51.024Z,103467.31
2023-02-11T17:59:23.184Z,103460.25
2023-02-11T18:01:55.080Z,103462.97
2023-02-11T18:04:27.097Z,103464.38
2023-02-11T18:06:59.292Z,103460.19
2023-02-11T18:09:31.188Z,103465.69
2023-02-11T18:12:03.253Z,103466.59
2023-02-11T18:14:35.262Z,103475.13
2023-02-11T18:17:07.606Z,103486.31
2023-02-11T18:19:39.598Z,103475.47
2023-02-11T18:22:11.677Z,103472.56
2023-02-11T18:24:43.681Z,103470.75
2023-02-11T18:27:15.645Z,103477.03
2023-02-11T18:29:47.980Z,103472.28
2023-02-11T18:32:19.923Z,103470.75
2023-02-11T18:34:51.855Z,103481.88
2023-02-11T18:37:23.843Z,103486.53
2023-02-11T18:39:55.905Z,103489.91
2023-02-11T18:42:28.067Z,103487.28
2023-02-11T18:45:00.385Z,103489.91
2023-02-11T18:47:32.494Z,103489.25
2023-02-11T18:50:07.037Z,103492.81
2023-02-11T18:52:39.127Z,103418.13
2023-02-11T18:55:11.108Z,103488.34
2023-02-11T18:57:43.142Z,103489.66
2023-02-11T19:00:15.856Z,103492.53
2023-02-11T19:02:47.937Z,103477.06
2023-02-11T19:05:19.965Z,103486.88
2023-02-11T19:07:51.940Z,103495.56
2023-02-11T19:10:24.357Z,103497.50
2023-02-11T19:12:58.972Z,103488.72
2023-02-11T19:15:31.465Z,103500.00
2023-02-11T19:18:04.552Z,103490.56
2023-02-11T19:20:40.641Z,103494.00
2023-02-11T19:23:12.577Z,103493.31
2023-02-11T19:25:48.955Z,103496.47
2023-02-11T19:28:20.915Z,103503.72
2023-02-11T19:30:52.957Z,103504.09
2023-02-11T19:33:25.507Z,103499.25
2023-02-11T19:36:04.582Z,103508.84
2023-02-11T19:38:36.744Z,103502.66
2023-02-11T19:41:10.011Z,103511.22
2023-02-11T19:43:43.406Z,103515.44
2023-02-11T19:46:15.331Z,103516.91
2023-02-11T19:48:49.105Z,103526.50
2023-02-11T19:51:21.838Z,103514.38
2023-02-11T19:53:54.011Z,103525.94
2023-02-11T19:56:28.406Z,103529.34
2023-02-11T19:59:03.186Z,103531.84
2023-02-11T20:01:36.543Z,103531.22
2023-02-11T20:04:08.694Z,103541.81
2023-02-11T20:06:40.677Z,103539.19
2023-02-11T20:09:16.359Z,103539.88
2023-02-11T20:11:49.468Z,103542.25
2023-02-11T20:14:21.402Z,103544.34
2023-02-11T20:16:53.376Z,103540.53
2023-02-11T20:19:25.520Z,103543.03
2023-02-11T20:21:57.575Z,103550.13
2023-02-11T20:24:29.498Z,103541.47
2023-02-11T20:27:01.510Z,103551.16
2023-02-11T20:29:33.449Z,103556.66
2023-02-11T20:32:07.047Z,103562.97
2023-02-11T20:34:39.328Z,103561.91
2023-02-11T20:37:11.384Z,103568.88
2023-02-11T20:39:45.220Z,103568.25
2023-02-11T20:42:17.212Z,103561.38
2023-02-11T20:44:49.525Z,103573.75
2023-02-11T20:47:22.731Z,103568.25
2023-02-11T20:49:55.802Z,103572.31
2023-02-11T20:52:28.744Z,103569.78
2023-02-11T20:55:01.648Z,103574.41
2023-02-11T20:57:35.151Z,103577.16
2023-02-11T21:00:09.659Z,103584.25
2023-02-11T21:02:41.611Z,103584.25
2023-02-11T21:05:13.787Z,103582.41
2023-02-11T21:07:46.519Z,103586.72
2023-02-11T21:10:18.774Z,103581.91
2023-02-11T21:12:50.771Z,103594.00
2023-02-11T21:15:24.189Z,103598.97
2023-02-11T21:17:56.314Z,103600.59
2023-02-11T21:20:28.337Z,103596.78
2023-02-11T21:23:01.203Z,103601.88
2023-02-11T21:25:33.104Z,103600.34
2023-02-11T21:28:05.499Z,103592.47
2023-02-11T21:30:41.907Z,103607.81
2023-02-11T21:33:14.114Z,103608.75
2023-02-11T21:35:46.077Z,103618.56
2023-02-11T21:38:18.078Z,103613.31
2023-02-11T21:40:50.158Z,103616.63
2023-02-11T21:43:22.646Z,103608.06
2023-02-11T21:45:54.828Z,103612.41
2023-02-11T21:48:27.457Z,103616.88
2023-02-11T21:50:59.385Z,103619.25
2023-02-11T21:53:31.348Z,103621.09
2023-02-11T21:56:13.425Z,103620.94
2023-02-11T21:58:46.713Z,103623.81
2023-02-11T22:01:23.217Z,103582.53
2023-02-11T22:03:55.248Z,103625.00
2023-02-11T22:06:32.012Z,103632.34
2023-02-11T22:09:08.073Z,103623.31
2023-02-11T22:11:40.235Z,103614.00
2023-02-11T22:14:12.161Z,103622.38
2023-02-11T22:16:47.897Z,103626.84
2023-02-11T22:19:19.844Z,103617.94
2023-02-11T22:21:51.785Z,103625.25
2023-02-11T22:24:23.771Z,103625.16
2023-02-11T22:26:55.840Z,103627.78
2023-02-11T22:29:27.774Z,103619.13
2023-02-11T22:31:59.736Z,103615.66
2023-02-11T22:34:32.160Z,103614.75
2023-02-11T22:37:05.049Z,103625.00
2023-02-11T22:39:36.944Z,103621.59
2023-02-11T22:42:09.767Z,103621.84
2023-02-11T22:44:41.695Z,103627.25
2023-02-11T22:47:13.662Z,103631.03
2023-02-11T22:49:45.638Z,103622.09
2023-02-11T22:52:17.601Z,103627.34
2023-02-11T22:54:52.244Z,103625.00
2023-02-11T22:57:24.202Z,103623.19
2023-02-11T22:59:56.175Z,103627.63
2023-02-11T23:02:28.094Z,103623.31
2023-02-11T23:05:00.029Z,103628.44
2023-02-11T23:07:32.039Z,103623.97
2023-02-11T23:10:04.794Z,103629.34
2023-02-11T23:12:36.756Z,103627.53
2023-02-11T23:15:09.246Z,103602.19
2023-02-11T23:17:41.165Z,103618.97
2023-02-11T23:20:13.574Z,103624.38
2023-02-11T23:22:45.609Z,103627.25
2023-02-11T23:25:17.712Z,103629.19
2023-02-11T23:27:49.705Z,103624.97
2023-02-11T23:30:22.120Z,103632.59
2023-02-11T23:32:54.159Z,103625.13
2023-02-11T23:35:26.240Z,103604.38
2023-02-11T23:37:58.212Z,103619.84
2023-02-11T23:40:30.160Z,103627.06
2023-02-11T23:43:02.378Z,103620.66
2023-02-11T23:45:34.330Z,103618.94
2023-02-11T23:48:06.226Z,103636.13
2023-02-11T23:50:39.796Z,103631.66
2023-02-11T23:53:12.684Z,103634.28
2023-02-11T23:55:46.696Z,103628.00
2023-02-11T23:58:18.634Z,103626.03
